sensor_id;sensor_type;location;lat;lon;timestamp;temperature;humidity
28725;DHT22;43472;48.980;9.646;2023-05-29T00:00:16;13.60;99.90
28725;DHT22;43472;48.980;9.646;2023-05-29T00:05:20;13.60;99.90
28725;DHT22;43472;48.980;9.646;2023-05-29T00:10:22;13.70;99.90
28725;DHT22;43472;48.980;9.646;2023-05-29T00:15:39;13.60;99.90
28725;DHT22;43472;48.980;9.646;2023-05-29T00:20:45;13.50;99.90
28725;DHT22;43472;48.980;9.646;2023-05-29T00:25:47;13.50;99.90
28725;DHT22;43472;48.980;9.646;2023-05-29T00:30:49;13.50;99.90
28725;DHT22;43472;48.980;9.646;2023-05-29T00:35:51;13.50;99.90
28725;DHT22;43472;48.980;9.646;2023-05-29T00:40:53;13.20;99.90
28725;DHT22;43472;48.980;9.646;2023-05-29T00:45:55;13.30;99.90
28725;DHT22;43472;48.980;9.646;2023-05-29T00:51:12;13.30;99.90
28725;DHT22;43472;48.980;9.646;2023-05-29T00:56:15;13.30;99.90
28725;DHT22;43472;48.980;9.646;2023-05-29T01:01:25;13.10;99.90
28725;DHT22;43472;48.980;9.646;2023-05-29T01:06:28;13.10;99.90
28725;DHT22;43472;48.980;9.646;2023-05-29T01:17:15;12.20;99.90
28725;DHT22;43472;48.980;9.646;2023-05-29T01:28:04;12.90;99.90
28725;DHT22;43472;48.980;9.646;2023-05-29T01:33:21;12.80;99.90
28725;DHT22;43472;48.980;9.646;2023-05-29T01:38:23;12.90;99.90
28725;DHT22;43472;48.980;9.646;2023-05-29T01:43:27;12.80;99.90
28725;DHT22;43472;48.980;9.646;2023-05-29T01:48:29;14.30;99.90
28725;DHT22;43472;48.980;9.646;2023-05-29T01:53:46;12.50;99.90
28725;DHT22;43472;48.980;9.646;2023-05-29T01:58:49;12.60;99.90
28725;DHT22;43472;48.980;9.646;2023-05-29T02:04:07;12.50;99.90
28725;DHT22;43472;48.980;9.646;2023-05-29T02:09:09;12.50;99.90
28725;DHT22;43472;48.980;9.646;2023-05-29T02:14:11;12.30;99.90
28725;DHT22;43472;48.980;9.646;2023-05-29T02:19:13;12.20;99.90
28725;DHT22;43472;48.980;9.646;2023-05-29T02:24:15;12.20;99.90
28725;DHT22;43472;48.980;9.646;2023-05-29T02:29:17;12.40;99.90
28725;DHT22;43472;48.980;9.646;2023-05-29T02:34:34;14.70;99.90
28725;DHT22;43472;48.980;9.646;2023-05-29T02:39:35;11.60;99.90
28725;DHT22;43472;48.980;9.646;2023-05-29T02:44:37;12.30;99.90
28725;DHT22;43472;48.980;9.646;2023-05-29T02:49:39;12.10;99.90
28725;DHT22;43472;48.980;9.646;2023-05-29T02:54:41;12.10;99.90
28725;DHT22;43472;48.980;9.646;2023-05-29T02:59:43;12.00;99.90
28725;DHT22;43472;48.980;9.646;2023-05-29T03:04:46;12.00;99.90
28725;DHT22;43472;48.980;9.646;2023-05-29T03:09:48;12.00;99.90
28725;DHT22;43472;48.980;9.646;2023-05-29T03:14:50;11.80;99.90
28725;DHT22;43472;48.980;9.646;2023-05-29T03:19:52;11.90;99.90
28725;DHT22;43472;48.980;9.646;2023-05-29T03:24:53;11.80;99.90
28725;DHT22;43472;48.980;9.646;2023-05-29T03:29:59;11.90;99.90
28725;DHT22;43472;48.980;9.646;2023-05-29T03:35:01;11.70;99.90
28725;DHT22;43472;48.980;9.646;2023-05-29T03:40:08;11.70;99.90
28725;DHT22;43472;48.980;9.646;2023-05-29T03:45:10;11.80;99.90
28725;DHT22;43472;48.980;9.646;2023-05-29T03:50:12;11.60;99.90
28725;DHT22;43472;48.980;9.646;2023-05-29T03:55:16;11.50;99.90
28725;DHT22;43472;48.980;9.646;2023-05-29T04:00:23;11.60;99.90
28725;DHT22;43472;48.980;9.646;2023-05-29T04:05:39;11.70;99.90
28725;DHT22;43472;48.980;9.646;2023-05-29T04:10:56;11.70;99.90
28725;DHT22;43472;48.980;9.646;2023-05-29T04:15:58;11.70;99.90
28725;DHT22;43472;48.980;9.646;2023-05-29T04:21:15;11.80;99.90
28725;DHT22;43472;48.980;9.646;2023-05-29T04:26:17;11.70;99.90
28725;DHT22;43472;48.980;9.646;2023-05-29T04:31:19;11.70;99.90
28725;DHT22;43472;48.980;9.646;2023-05-29T04:36:40;11.60;99.90
28725;DHT22;43472;48.980;9.646;2023-05-29T04:41:42;13.00;99.90
28725;DHT22;43472;48.980;9.646;2023-05-29T04:46:47;11.80;99.90
28725;DHT22;43472;48.980;9.646;2023-05-29T04:51:50;11.80;99.90
28725;DHT22;43472;48.980;9.646;2023-05-29T04:57:09;12.00;99.90
28725;DHT22;43472;48.980;9.646;2023-05-29T05:02:12;12.10;99.90
28725;DHT22;43472;48.980;9.646;2023-05-29T05:07:17;12.10;99.90
28725;DHT22;43472;48.980;9.646;2023-05-29T05:12:18;12.20;99.90
28725;DHT22;43472;48.980;9.646;2023-05-29T05:17:21;12.40;99.90
28725;DHT22;43472;48.980;9.646;2023-05-29T05:22:23;12.50;99.90
28725;DHT22;43472;48.980;9.646;2023-05-29T05:27:39;12.70;99.90
28725;DHT22;43472;48.980;9.646;2023-05-29T05:32:41;12.90;99.90
28725;DHT22;43472;48.980;9.646;2023-05-29T05:37:45;13.00;99.90
28725;DHT22;43472;48.980;9.646;2023-05-29T05:42:47;13.20;99.90
28725;DHT22;43472;48.980;9.646;2023-05-29T05:47:57;13.40;99.90
28725;DHT22;43472;48.980;9.646;2023-05-29T05:52:59;13.70;99.90
28725;DHT22;43472;48.980;9.646;2023-05-29T05:58:01;14.00;99.90
28725;DHT22;43472;48.980;9.646;2023-05-29T06:03:18;14.20;99.90
28725;DHT22;43472;48.980;9.646;2023-05-29T06:08:20;14.50;99.90
28725;DHT22;43472;48.980;9.646;2023-05-29T06:13:22;14.70;99.90
28725;DHT22;43472;48.980;9.646;2023-05-29T06:18:24;14.90;99.90
28725;DHT22;43472;48.980;9.646;2023-05-29T06:23:26;15.40;99.90
28725;DHT22;43472;48.980;9.646;2023-05-29T06:28:28;15.70;99.90
28725;DHT22;43472;48.980;9.646;2023-05-29T06:33:45;16.20;99.90
28725;DHT22;43472;48.980;9.646;2023-05-29T06:38:50;16.60;99.90
28725;DHT22;43472;48.980;9.646;2023-05-29T06:43:52;16.60;99.90
28725;DHT22;43472;48.980;9.646;2023-05-29T06:48:53;17.10;99.90
28725;DHT22;43472;48.980;9.646;2023-05-29T06:53:55;17.10;99.90
28725;DHT22;43472;48.980;9.646;2023-05-29T06:58:57;17.50;99.90
28725;DHT22;43472;48.980;9.646;2023-05-29T07:03:59;17.50;99.90
28725;DHT22;43472;48.980;9.646;2023-05-29T07:09:01;18.10;99.90
28725;DHT22;43472;48.980;9.646;2023-05-29T07:14:03;18.10;99.90
28725;DHT22;43472;48.980;9.646;2023-05-29T07:19:20;18.30;99.90
28725;DHT22;43472;48.980;9.646;2023-05-29T07:24:22;18.40;99.90
28725;DHT22;43472;48.980;9.646;2023-05-29T07:29:24;18.50;99.90
28725;DHT22;43472;48.980;9.646;2023-05-29T07:34:41;18.50;99.90
28725;DHT22;43472;48.980;9.646;2023-05-29T07:39:46;19.80;99.90
28725;DHT22;43472;48.980;9.646;2023-05-29T07:44:56;18.90;99.90
28725;DHT22;43472;48.980;9.646;2023-05-29T07:49:58;19.20;99.90
28725;DHT22;43472;48.980;9.646;2023-05-29T07:55:00;19.30;99.90
28725;DHT22;43472;48.980;9.646;2023-05-29T08:00:06;19.50;99.80
28725;DHT22;43472;48.980;9.646;2023-05-29T08:05:10;19.90;99.90
28725;DHT22;43472;48.980;9.646;2023-05-29T08:10:12;20.20;99.30
28725;DHT22;43472;48.980;9.646;2023-05-29T08:15:14;20.30;99.30
28725;DHT22;43472;48.980;9.646;2023-05-29T08:20:17;20.50;98.40
28725;DHT22;43472;48.980;9.646;2023-05-29T08:25:19;20.80;98.30
28725;DHT22;43472;48.980;9.646;2023-05-29T08:30:21;21.00;97.90
28725;DHT22;43472;48.980;9.646;2023-05-29T08:35:27;21.20;97.70
28725;DHT22;43472;48.980;9.646;2023-05-29T08:40:29;21.60;96.90
28725;DHT22;43472;48.980;9.646;2023-05-29T08:45:33;21.80;96.80
28725;DHT22;43472;48.980;9.646;2023-05-29T08:50:43;21.90;96.70
28725;DHT22;43472;48.980;9.646;2023-05-29T08:56:00;22.00;97.50
28725;DHT22;43472;48.980;9.646;2023-05-29T09:01:03;22.50;94.20
28725;DHT22;43472;48.980;9.646;2023-05-29T09:06:05;22.80;93.30
28725;DHT22;43472;48.980;9.646;2023-05-29T09:11:08;22.90;92.60
28725;DHT22;43472;48.980;9.646;2023-05-29T09:16:10;22.90;91.40
28725;DHT22;43472;48.980;9.646;2023-05-29T09:21:26;23.30;91.20
28725;DHT22;43472;48.980;9.646;2023-05-29T09:26:28;23.50;92.10
28725;DHT22;43472;48.980;9.646;2023-05-29T09:31:30;23.70;90.20
28725;DHT22;43472;48.980;9.646;2023-05-29T09:36:32;23.60;90.50
28725;DHT22;43472;48.980;9.646;2023-05-29T09:41:40;23.80;90.70
28725;DHT22;43472;48.980;9.646;2023-05-29T09:46:42;23.90;88.70
28725;DHT22;43472;48.980;9.646;2023-05-29T09:51:46;24.00;89.20
28725;DHT22;43472;48.980;9.646;2023-05-29T09:56:50;24.30;89.50
28725;DHT22;43472;48.980;9.646;2023-05-29T10:07:28;24.80;84.80
28725;DHT22;43472;48.980;9.646;2023-05-29T10:12:38;25.00;81.40
28725;DHT22;43472;48.980;9.646;2023-05-29T10:17:57;25.10;81.00
28725;DHT22;43472;48.980;9.646;2023-05-29T10:28:22;25.50;74.80
28725;DHT22;43472;48.980;9.646;2023-05-29T10:38:29;26.20;74.30
28725;DHT22;43472;48.980;9.646;2023-05-29T10:43:33;26.30;76.10
28725;DHT22;43472;48.980;9.646;2023-05-29T10:48:36;26.50;73.20
28725;DHT22;43472;48.980;9.646;2023-05-29T10:53:40;26.90;70.20
28725;DHT22;43472;48.980;9.646;2023-05-29T11:08:56;26.90;68.60
28725;DHT22;43472;48.980;9.646;2023-05-29T11:14:03;26.70;62.80
28725;DHT22;43472;48.980;9.646;2023-05-29T11:25:33;27.00;64.70
28725;DHT22;43472;48.980;9.646;2023-05-29T11:30:46;26.90;68.00
28725;DHT22;43472;48.980;9.646;2023-05-29T11:35:50;27.40;65.90
28725;DHT22;43472;48.980;9.646;2023-05-29T11:40:57;27.00;62.00
28725;DHT22;43472;48.980;9.646;2023-05-29T11:46:02;27.10;62.40
28725;DHT22;43472;48.980;9.646;2023-05-29T11:51:15;27.60;63.20
28725;DHT22;43472;48.980;9.646;2023-05-29T11:56:18;27.80;62.70
28725;DHT22;43472;48.980;9.646;2023-05-29T12:01:21;27.90;62.90
28725;DHT22;43472;48.980;9.646;2023-05-29T12:06:35;28.40;64.00
28725;DHT22;43472;48.980;9.646;2023-05-29T12:11:40;28.20;61.50
28725;DHT22;43472;48.980;9.646;2023-05-29T12:16:42;28.00;62.70
28725;DHT22;43472;48.980;9.646;2023-05-29T12:26:49;28.30;60.70
28725;DHT22;43472;48.980;9.646;2023-05-29T12:31:58;27.90;60.30
28725;DHT22;43472;48.980;9.646;2023-05-29T12:37:09;27.90;61.90
28725;DHT22;43472;48.980;9.646;2023-05-29T12:42:14;28.30;62.60
28725;DHT22;43472;48.980;9.646;2023-05-29T12:47:23;28.40;61.90
28725;DHT22;43472;48.980;9.646;2023-05-29T12:57:29;28.50;62.00
28725;DHT22;43472;48.980;9.646;2023-05-29T13:02:31;28.10;59.30
28725;DHT22;43472;48.980;9.646;2023-05-29T13:07:37;28.00;59.70
28725;DHT22;43472;48.980;9.646;2023-05-29T13:17:41;28.90;63.00
28725;DHT22;43472;48.980;9.646;2023-05-29T13:22:44;28.90;62.90
28725;DHT22;43472;48.980;9.646;2023-05-29T13:27:48;29.00;63.60
28725;DHT22;43472;48.980;9.646;2023-05-29T13:32:51;28.60;64.40
28725;DHT22;43472;48.980;9.646;2023-05-29T13:37:55;29.10;60.90
28725;DHT22;43472;48.980;9.646;2023-05-29T13:42:57;29.10;61.90
28725;DHT22;43472;48.980;9.646;2023-05-29T13:47:59;29.20;60.10
28725;DHT22;43472;48.980;9.646;2023-05-29T13:53:01;29.00;60.50
28725;DHT22;43472;48.980;9.646;2023-05-29T13:58:03;28.90;62.90
28725;DHT22;43472;48.980;9.646;2023-05-29T14:08:10;29.20;59.60
28725;DHT22;43472;48.980;9.646;2023-05-29T14:13:11;29.30;62.20
28725;DHT22;43472;48.980;9.646;2023-05-29T14:18:14;29.20;62.20
28725;DHT22;43472;48.980;9.646;2023-05-29T14:23:19;29.30;63.60
28725;DHT22;43472;48.980;9.646;2023-05-29T14:28:21;29.00;61.20
28725;DHT22;43472;48.980;9.646;2023-05-29T14:48:31;29.10;60.30
28725;DHT22;43472;48.980;9.646;2023-05-29T14:53:35;29.00;61.20
28725;DHT22;43472;48.980;9.646;2023-05-29T14:58:39;28.70;59.20
28725;DHT22;43472;48.980;9.646;2023-05-29T15:03:43;28.80;60.00
28725;DHT22;43472;48.980;9.646;2023-05-29T15:08:45;29.00;60.70
28725;DHT22;43472;48.980;9.646;2023-05-29T15:13:47;29.10;60.10
28725;DHT22;43472;48.980;9.646;2023-05-29T15:18:50;28.30;59.00
28725;DHT22;43472;48.980;9.646;2023-05-29T15:23:51;28.50;61.70
28725;DHT22;43472;48.980;9.646;2023-05-29T15:28:54;28.30;60.00
28725;DHT22;43472;48.980;9.646;2023-05-29T15:33:56;28.30;60.50
28725;DHT22;43472;48.980;9.646;2023-05-29T15:38:58;28.10;61.80
28725;DHT22;43472;48.980;9.646;2023-05-29T15:44:00;28.20;63.30
28725;DHT22;43472;48.980;9.646;2023-05-29T15:49:02;27.80;61.90
28725;DHT22;43472;48.980;9.646;2023-05-29T15:54:04;27.80;63.40
28725;DHT22;43472;48.980;9.646;2023-05-29T15:59:06;27.60;61.90
28725;DHT22;43472;48.980;9.646;2023-05-29T16:04:08;27.30;61.20
28725;DHT22;43472;48.980;9.646;2023-05-29T16:09:10;27.10;62.80
28725;DHT22;43472;48.980;9.646;2023-05-29T16:14:12;27.00;65.10
28725;DHT22;43472;48.980;9.646;2023-05-29T16:19:14;26.30;64.50
28725;DHT22;43472;48.980;9.646;2023-05-29T16:24:17;26.10;65.60
28725;DHT22;43472;48.980;9.646;2023-05-29T16:29:19;26.10;69.10
28725;DHT22;43472;48.980;9.646;2023-05-29T16:34:21;26.00;66.20
28725;DHT22;43472;48.980;9.646;2023-05-29T16:39:23;25.60;66.00
28725;DHT22;43472;48.980;9.646;2023-05-29T16:44:29;25.70;67.30
28725;DHT22;43472;48.980;9.646;2023-05-29T16:49:30;25.20;65.80
28725;DHT22;43472;48.980;9.646;2023-05-29T16:54:33;25.00;67.40
28725;DHT22;43472;48.980;9.646;2023-05-29T17:04:42;25.10;65.40
28725;DHT22;43472;48.980;9.646;2023-05-29T17:09:45;25.00;66.00
28725;DHT22;43472;48.980;9.646;2023-05-29T17:14:51;24.50;67.10
28725;DHT22;43472;48.980;9.646;2023-05-29T17:19:53;24.70;67.40
28725;DHT22;43472;48.980;9.646;2023-05-29T17:24:55;24.40;67.80
28725;DHT22;43472;48.980;9.646;2023-05-29T17:29:57;24.40;68.10
28725;DHT22;43472;48.980;9.646;2023-05-29T17:35:00;24.10;66.60
28725;DHT22;43472;48.980;9.646;2023-05-29T17:40:02;23.90;66.70
28725;DHT22;43472;48.980;9.646;2023-05-29T17:45:07;23.80;69.40
28725;DHT22;43472;48.980;9.646;2023-05-29T17:50:11;23.80;70.30
28725;DHT22;43472;48.980;9.646;2023-05-29T17:55:13;23.60;75.00
28725;DHT22;43472;48.980;9.646;2023-05-29T18:00:16;23.30;77.20
28725;DHT22;43472;48.980;9.646;2023-05-29T18:05:20;23.00;79.70
28725;DHT22;43472;48.980;9.646;2023-05-29T18:10:23;23.00;73.50
28725;DHT22;43472;48.980;9.646;2023-05-29T18:15:26;22.90;72.90
28725;DHT22;43472;48.980;9.646;2023-05-29T18:20:30;22.40;80.20
28725;DHT22;43472;48.980;9.646;2023-05-29T18:25:35;22.40;79.90
28725;DHT22;43472;48.980;9.646;2023-05-29T18:30:37;22.00;83.60
28725;DHT22;43472;48.980;9.646;2023-05-29T18:35:39;21.90;82.50
28725;DHT22;43472;48.980;9.646;2023-05-29T18:40:41;21.60;83.40
28725;DHT22;43472;48.980;9.646;2023-05-29T18:45:48;21.50;85.20
28725;DHT22;43472;48.980;9.646;2023-05-29T18:50:52;21.10;82.60
28725;DHT22;43472;48.980;9.646;2023-05-29T18:55:57;21.00;84.20
28725;DHT22;43472;48.980;9.646;2023-05-29T19:00:59;20.90;85.70
28725;DHT22;43472;48.980;9.646;2023-05-29T19:06:26;20.70;85.10
28725;DHT22;43472;48.980;9.646;2023-05-29T19:11:28;20.50;85.40
28725;DHT22;43472;48.980;9.646;2023-05-29T19:21:33;20.00;88.20
28725;DHT22;43472;48.980;9.646;2023-05-29T19:26:35;20.10;89.10
28725;DHT22;43472;48.980;9.646;2023-05-29T19:31:38;19.90;88.10
28725;DHT22;43472;48.980;9.646;2023-05-29T19:36:40;19.70;90.10
28725;DHT22;43472;48.980;9.646;2023-05-29T19:41:42;19.50;90.00
28725;DHT22;43472;48.980;9.646;2023-05-29T19:46:44;19.50;90.80
28725;DHT22;43472;48.980;9.646;2023-05-29T19:51:51;19.40;89.20
28725;DHT22;43472;48.980;9.646;2023-05-29T19:56:59;19.30;90.30
28725;DHT22;43472;48.980;9.646;2023-05-29T20:02:02;19.20;90.40
28725;DHT22;43472;48.980;9.646;2023-05-29T20:07:06;18.90;91.00
28725;DHT22;43472;48.980;9.646;2023-05-29T20:12:08;18.80;91.70
28725;DHT22;43472;48.980;9.646;2023-05-29T20:17:10;18.60;92.00
28725;DHT22;43472;48.980;9.646;2023-05-29T20:22:12;18.60;92.20
28725;DHT22;43472;48.980;9.646;2023-05-29T20:27:15;18.40;92.70
28725;DHT22;43472;48.980;9.646;2023-05-29T20:32:17;18.40;92.20
28725;DHT22;43472;48.980;9.646;2023-05-29T20:37:19;18.30;93.10
28725;DHT22;43472;48.980;9.646;2023-05-29T20:42:25;18.10;93.00
28725;DHT22;43472;48.980;9.646;2023-05-29T20:47:27;18.00;93.60
28725;DHT22;43472;48.980;9.646;2023-05-29T20:52:31;18.20;94.00
28725;DHT22;43472;48.980;9.646;2023-05-29T21:02:39;17.70;93.80
28725;DHT22;43472;48.980;9.646;2023-05-29T21:07:42;17.50;94.50
28725;DHT22;43472;48.980;9.646;2023-05-29T21:12:44;17.50;94.80
28725;DHT22;43472;48.980;9.646;2023-05-29T21:17:46;17.00;95.40
28725;DHT22;43472;48.980;9.646;2023-05-29T21:22:49;17.00;95.40
28725;DHT22;43472;48.980;9.646;2023-05-29T21:27:52;16.90;95.90
28725;DHT22;43472;48.980;9.646;2023-05-29T21:32:54;16.90;96.10
28725;DHT22;43472;48.980;9.646;2023-05-29T21:37:57;16.60;96.20
28725;DHT22;43472;48.980;9.646;2023-05-29T21:42:59;16.60;96.10
28725;DHT22;43472;48.980;9.646;2023-05-29T21:48:01;16.60;96.20
28725;DHT22;43472;48.980;9.646;2023-05-29T21:58:09;16.40;97.30
28725;DHT22;43472;48.980;9.646;2023-05-29T22:03:11;16.30;97.50
28725;DHT22;43472;48.980;9.646;2023-05-29T22:13:17;16.10;97.30
28725;DHT22;43472;48.980;9.646;2023-05-29T22:28:31;16.20;97.50
28725;DHT22;43472;48.980;9.646;2023-05-29T22:33:34;16.20;97.70
28725;DHT22;43472;48.980;9.646;2023-05-29T22:38:37;16.10;98.10
28725;DHT22;43472;48.980;9.646;2023-05-29T22:43:40;17.10;99.00
28725;DHT22;43472;48.980;9.646;2023-05-29T22:53:48;15.90;98.10
28725;DHT22;43472;48.980;9.646;2023-05-29T22:58:51;16.00;98.70
28725;DHT22;43472;48.980;9.646;2023-05-29T23:08:58;15.80;98.80
28725;DHT22;43472;48.980;9.646;2023-05-29T23:24:10;15.80;99.00
28725;DHT22;43472;48.980;9.646;2023-05-29T23:29:16;15.60;99.40
28725;DHT22;43472;48.980;9.646;2023-05-29T23:49:59;15.30;99.90
28725;DHT22;43472;48.980;9.646;2023-05-29T23:55:05;15.30;99.90
